sensor_id;sensor_type;location;lat;lon;timestamp;temperature;humidity
75769;DHT22;64379;48.888;8.330;2023-02-26T00:00:17;-0.70;61.40
75769;DHT22;64379;48.888;8.330;2023-02-26T00:02:46;-0.70;61.90
75769;DHT22;64379;48.888;8.330;2023-02-26T00:05:14;-0.80;62.00
75769;DHT22;64379;48.888;8.330;2023-02-26T00:07:41;-0.80;62.40
75769;DHT22;64379;48.888;8.330;2023-02-26T00:10:09;-0.80;62.90
75769;DHT22;64379;48.888;8.330;2023-02-26T00:12:35;-0.90;62.90
75769;DHT22;64379;48.888;8.330;2023-02-26T00:15:01;-1.00;63.90
75769;DHT22;64379;48.888;8.330;2023-02-26T00:17:33;-1.00;64.00
75769;DHT22;64379;48.888;8.330;2023-02-26T00:20:00;-1.00;64.50
75769;DHT22;64379;48.888;8.330;2023-02-26T00:22:26;-1.10;64.10
75769;DHT22;64379;48.888;8.330;2023-02-26T00:24:52;-1.10;64.30
75769;DHT22;64379;48.888;8.330;2023-02-26T00:27:17;-1.00;63.70
75769;DHT22;64379;48.888;8.330;2023-02-26T00:29:44;-1.00;63.90
75769;DHT22;64379;48.888;8.330;2023-02-26T00:32:10;-1.10;63.80
75769;DHT22;64379;48.888;8.330;2023-02-26T00:34:36;-1.10;64.00
75769;DHT22;64379;48.888;8.330;2023-02-26T00:42:42;-1.10;64.30
75769;DHT22;64379;48.888;8.330;2023-02-26T00:45:09;-1.10;64.10
75769;DHT22;64379;48.888;8.330;2023-02-26T00:47:51;-1.20;64.00
75769;DHT22;64379;48.888;8.330;2023-02-26T00:50:25;-1.20;64.00
75769;DHT22;64379;48.888;8.330;2023-02-26T00:55:25;-1.10;64.10
75769;DHT22;64379;48.888;8.330;2023-02-26T00:57:51;-1.30;64.60
75769;DHT22;64379;48.888;8.330;2023-02-26T01:00:17;-1.30;64.50
75769;DHT22;64379;48.888;8.330;2023-02-26T01:02:43;-1.30;64.60
75769;DHT22;64379;48.888;8.330;2023-02-26T01:05:09;-1.30;64.80
75769;DHT22;64379;48.888;8.330;2023-02-26T01:08:05;-1.40;65.00
75769;DHT22;64379;48.888;8.330;2023-02-26T01:10:33;-1.50;65.10
75769;DHT22;64379;48.888;8.330;2023-02-26T01:12:59;-1.50;65.20
75769;DHT22;64379;48.888;8.330;2023-02-26T01:15:25;-1.50;65.40
75769;DHT22;64379;48.888;8.330;2023-02-26T01:20:31;-1.50;65.10
75769;DHT22;64379;48.888;8.330;2023-02-26T01:23:03;-1.30;65.40
75769;DHT22;64379;48.888;8.330;2023-02-26T01:25:40;-1.40;65.10
75769;DHT22;64379;48.888;8.330;2023-02-26T01:28:08;-1.40;65.40
75769;DHT22;64379;48.888;8.330;2023-02-26T01:30:34;-1.50;65.40
75769;DHT22;64379;48.888;8.330;2023-02-26T01:33:08;-1.50;65.60
75769;DHT22;64379;48.888;8.330;2023-02-26T01:35:50;-1.50;65.90
75769;DHT22;64379;48.888;8.330;2023-02-26T01:38:27;-1.50;65.70
75769;DHT22;64379;48.888;8.330;2023-02-26T01:41:20;-1.60;66.00
75769;DHT22;64379;48.888;8.330;2023-02-26T01:49:14;-1.70;66.50
75769;DHT22;64379;48.888;8.330;2023-02-26T01:51:55;-1.70;66.70
75769;DHT22;64379;48.888;8.330;2023-02-26T01:54:24;-1.70;66.30
75769;DHT22;64379;48.888;8.330;2023-02-26T01:56:55;-1.70;66.50
75769;DHT22;64379;48.888;8.330;2023-02-26T01:59:21;-1.80;66.90
75769;DHT22;64379;48.888;8.330;2023-02-26T02:01:53;-1.80;67.00
75769;DHT22;64379;48.888;8.330;2023-02-26T02:04:21;-1.70;66.50
75769;DHT22;64379;48.888;8.330;2023-02-26T02:06:47;-1.60;66.40
75769;DHT22;64379;48.888;8.330;2023-02-26T02:09:13;-1.60;66.40
75769;DHT22;64379;48.888;8.330;2023-02-26T02:18:20;-1.60;66.20
75769;DHT22;64379;48.888;8.330;2023-02-26T02:21:04;-1.50;66.70
75769;DHT22;64379;48.888;8.330;2023-02-26T02:23:46;-1.50;66.50
75769;DHT22;64379;48.888;8.330;2023-02-26T02:26:39;-1.50;66.50
75769;DHT22;64379;48.888;8.330;2023-02-26T02:29:12;-1.40;66.50
75769;DHT22;64379;48.888;8.330;2023-02-26T02:31:48;-1.50;66.20
75769;DHT22;64379;48.888;8.330;2023-02-26T02:34:21;-1.50;66.00
75769;DHT22;64379;48.888;8.330;2023-02-26T02:36:59;-1.50;66.00
75769;DHT22;64379;48.888;8.330;2023-02-26T02:39:36;-1.50;66.00
75769;DHT22;64379;48.888;8.330;2023-02-26T02:45:00;-1.50;66.40
75769;DHT22;64379;48.888;8.330;2023-02-26T02:47:29;-1.50;65.80
75769;DHT22;64379;48.888;8.330;2023-02-26T02:50:08;-1.50;66.30
75769;DHT22;64379;48.888;8.330;2023-02-26T02:52:42;-1.50;66.20
75769;DHT22;64379;48.888;8.330;2023-02-26T02:55:14;-1.60;66.40
75769;DHT22;64379;48.888;8.330;2023-02-26T02:57:58;-1.60;66.20
75769;DHT22;64379;48.888;8.330;2023-02-26T03:00:27;-1.70;66.60
75769;DHT22;64379;48.888;8.330;2023-02-26T03:05:44;-2.00;67.50
75769;DHT22;64379;48.888;8.330;2023-02-26T03:08:13;-2.10;68.00
75769;DHT22;64379;48.888;8.330;2023-02-26T03:10:40;-2.10;68.00
75769;DHT22;64379;48.888;8.330;2023-02-26T03:13:14;-1.90;67.20
75769;DHT22;64379;48.888;8.330;2023-02-26T03:18:41;-1.70;66.20
75769;DHT22;64379;48.888;8.330;2023-02-26T03:23:59;-1.60;66.10
75769;DHT22;64379;48.888;8.330;2023-02-26T03:26:46;-1.70;66.10
75769;DHT22;64379;48.888;8.330;2023-02-26T03:29:32;-1.90;66.60
75769;DHT22;64379;48.888;8.330;2023-02-26T03:32:01;-2.10;67.20
75769;DHT22;64379;48.888;8.330;2023-02-26T03:37:02;-2.10;68.30
75769;DHT22;64379;48.888;8.330;2023-02-26T03:39:52;-2.10;68.90
75769;DHT22;64379;48.888;8.330;2023-02-26T03:42:37;-2.20;69.10
75769;DHT22;64379;48.888;8.330;2023-02-26T03:45:10;-2.30;69.50
75769;DHT22;64379;48.888;8.330;2023-02-26T03:47:40;-2.30;69.80
75769;DHT22;64379;48.888;8.330;2023-02-26T03:50:19;-2.40;69.80
75769;DHT22;64379;48.888;8.330;2023-02-26T03:52:47;-2.40;69.90
75769;DHT22;64379;48.888;8.330;2023-02-26T03:55:15;-2.40;70.20
75769;DHT22;64379;48.888;8.330;2023-02-26T03:57:42;-2.30;69.40
75769;DHT22;64379;48.888;8.330;2023-02-26T04:00:09;-2.30;69.10
75769;DHT22;64379;48.888;8.330;2023-02-26T04:02:46;-2.40;69.20
75769;DHT22;64379;48.888;8.330;2023-02-26T04:05:23;-2.30;69.10
75769;DHT22;64379;48.888;8.330;2023-02-26T04:07:50;-2.40;69.40
75769;DHT22;64379;48.888;8.330;2023-02-26T04:10:20;-2.50;69.80
75769;DHT22;64379;48.888;8.330;2023-02-26T04:12:49;-2.50;69.70
75769;DHT22;64379;48.888;8.330;2023-02-26T04:15:15;-2.40;69.60
75769;DHT22;64379;48.888;8.330;2023-02-26T04:17:40;-2.40;69.80
75769;DHT22;64379;48.888;8.330;2023-02-26T04:20:06;-2.50;70.00
75769;DHT22;64379;48.888;8.330;2023-02-26T04:22:34;-2.60;70.20
75769;DHT22;64379;48.888;8.330;2023-02-26T04:24:59;-2.60;70.40
75769;DHT22;64379;48.888;8.330;2023-02-26T04:27:25;-2.70;70.80
75769;DHT22;64379;48.888;8.330;2023-02-26T04:29:50;-2.80;71.00
75769;DHT22;64379;48.888;8.330;2023-02-26T04:32:17;-2.80;71.30
75769;DHT22;64379;48.888;8.330;2023-02-26T04:34:43;-2.90;71.80
75769;DHT22;64379;48.888;8.330;2023-02-26T04:37:08;-2.80;71.60
75769;DHT22;64379;48.888;8.330;2023-02-26T04:39:35;-2.80;71.80
75769;DHT22;64379;48.888;8.330;2023-02-26T04:42:00;-2.80;71.60
75769;DHT22;64379;48.888;8.330;2023-02-26T04:44:29;-2.80;71.60
75769;DHT22;64379;48.888;8.330;2023-02-26T04:46:54;-2.80;71.60
75769;DHT22;64379;48.888;8.330;2023-02-26T04:49:20;-2.80;71.50
75769;DHT22;64379;48.888;8.330;2023-02-26T04:51:45;-2.80;71.40
75769;DHT22;64379;48.888;8.330;2023-02-26T04:54:11;-2.60;70.90
75769;DHT22;64379;48.888;8.330;2023-02-26T04:56:37;-2.70;70.70
75769;DHT22;64379;48.888;8.330;2023-02-26T04:59:02;-2.80;70.80
75769;DHT22;64379;48.888;8.330;2023-02-26T05:01:28;-2.90;71.10
75769;DHT22;64379;48.888;8.330;2023-02-26T05:03:53;-3.00;71.90
75769;DHT22;64379;48.888;8.330;2023-02-26T05:06:19;-3.00;71.80
75769;DHT22;64379;48.888;8.330;2023-02-26T05:08:45;-2.90;71.70
75769;DHT22;64379;48.888;8.330;2023-02-26T05:11:10;-2.90;71.70
75769;DHT22;64379;48.888;8.330;2023-02-26T05:13:37;-2.90;71.80
75769;DHT22;64379;48.888;8.330;2023-02-26T05:16:03;-2.90;71.80
75769;DHT22;64379;48.888;8.330;2023-02-26T05:18:29;-2.90;71.90
75769;DHT22;64379;48.888;8.330;2023-02-26T05:20:55;-2.90;71.70
75769;DHT22;64379;48.888;8.330;2023-02-26T05:23:22;-2.90;71.60
75769;DHT22;64379;48.888;8.330;2023-02-26T05:25:47;-2.80;71.50
75769;DHT22;64379;48.888;8.330;2023-02-26T05:28:13;-2.70;71.50
75769;DHT22;64379;48.888;8.330;2023-02-26T05:30:39;-2.80;71.60
75769;DHT22;64379;48.888;8.330;2023-02-26T05:33:04;-2.80;71.60
75769;DHT22;64379;48.888;8.330;2023-02-26T05:35:30;-2.80;71.60
75769;DHT22;64379;48.888;8.330;2023-02-26T05:37:55;-2.80;71.70
75769;DHT22;64379;48.888;8.330;2023-02-26T05:40:23;-2.70;71.20
75769;DHT22;64379;48.888;8.330;2023-02-26T05:42:49;-2.80;71.40
75769;DHT22;64379;48.888;8.330;2023-02-26T05:45:16;-2.80;71.40
75769;DHT22;64379;48.888;8.330;2023-02-26T05:47:42;-2.70;71.30
75769;DHT22;64379;48.888;8.330;2023-02-26T05:50:08;-2.70;71.10
75769;DHT22;64379;48.888;8.330;2023-02-26T05:52:34;-2.70;71.20
75769;DHT22;64379;48.888;8.330;2023-02-26T05:55:00;-2.60;71.10
75769;DHT22;64379;48.888;8.330;2023-02-26T05:57:26;-2.70;71.10
75769;DHT22;64379;48.888;8.330;2023-02-26T05:59:51;-2.70;71.50
75769;DHT22;64379;48.888;8.330;2023-02-26T06:02:18;-2.70;71.40
75769;DHT22;64379;48.888;8.330;2023-02-26T06:04:43;-2.70;71.60
75769;DHT22;64379;48.888;8.330;2023-02-26T06:07:09;-2.70;71.50
75769;DHT22;64379;48.888;8.330;2023-02-26T06:09:35;-2.70;71.60
75769;DHT22;64379;48.888;8.330;2023-02-26T06:12:00;-2.70;71.60
75769;DHT22;64379;48.888;8.330;2023-02-26T06:14:26;-2.60;71.60
75769;DHT22;64379;48.888;8.330;2023-02-26T06:16:51;-2.60;71.50
75769;DHT22;64379;48.888;8.330;2023-02-26T06:19:17;-2.70;71.80
75769;DHT22;64379;48.888;8.330;2023-02-26T06:21:43;-2.70;71.80
75769;DHT22;64379;48.888;8.330;2023-02-26T06:24:08;-2.60;71.60
75769;DHT22;64379;48.888;8.330;2023-02-26T06:26:34;-2.60;71.70
75769;DHT22;64379;48.888;8.330;2023-02-26T06:29:00;-2.60;71.70
75769;DHT22;64379;48.888;8.330;2023-02-26T06:31:26;-2.60;71.70
75769;DHT22;64379;48.888;8.330;2023-02-26T06:33:52;-2.60;71.90
75769;DHT22;64379;48.888;8.330;2023-02-26T06:36:17;-2.60;72.00
75769;DHT22;64379;48.888;8.330;2023-02-26T06:38:43;-2.60;72.30
75769;DHT22;64379;48.888;8.330;2023-02-26T06:41:10;-2.60;72.20
75769;DHT22;64379;48.888;8.330;2023-02-26T06:43:36;-2.50;71.90
75769;DHT22;64379;48.888;8.330;2023-02-26T06:46:04;-2.30;71.50
75769;DHT22;64379;48.888;8.330;2023-02-26T06:48:30;-2.30;71.60
75769;DHT22;64379;48.888;8.330;2023-02-26T06:50:56;-2.30;71.60
75769;DHT22;64379;48.888;8.330;2023-02-26T06:53:22;-2.30;71.50
75769;DHT22;64379;48.888;8.330;2023-02-26T06:55:50;-2.30;71.70
75769;DHT22;64379;48.888;8.330;2023-02-26T06:58:17;-2.30;72.00
75769;DHT22;64379;48.888;8.330;2023-02-26T07:00:43;-2.30;72.20
75769;DHT22;64379;48.888;8.330;2023-02-26T07:03:11;-2.30;72.20
75769;DHT22;64379;48.888;8.330;2023-02-26T07:05:38;-2.30;72.00
75769;DHT22;64379;48.888;8.330;2023-02-26T07:08:03;-2.30;72.10
75769;DHT22;64379;48.888;8.330;2023-02-26T07:10:34;-2.10;71.60
75769;DHT22;64379;48.888;8.330;2023-02-26T07:13:00;-2.00;71.70
75769;DHT22;64379;48.888;8.330;2023-02-26T07:15:25;-1.90;71.40
75769;DHT22;64379;48.888;8.330;2023-02-26T07:17:51;-1.70;70.90
75769;DHT22;64379;48.888;8.330;2023-02-26T07:20:17;-1.60;70.60
75769;DHT22;64379;48.888;8.330;2023-02-26T07:22:43;-1.50;70.30
75769;DHT22;64379;48.888;8.330;2023-02-26T07:25:12;-1.50;70.50
75769;DHT22;64379;48.888;8.330;2023-02-26T07:27:37;-1.50;70.40
75769;DHT22;64379;48.888;8.330;2023-02-26T07:30:04;-1.40;70.10
75769;DHT22;64379;48.888;8.330;2023-02-26T07:32:30;-1.30;69.70
75769;DHT22;64379;48.888;8.330;2023-02-26T07:34:56;-1.30;69.70
75769;DHT22;64379;48.888;8.330;2023-02-26T07:37:22;-1.30;69.40
75769;DHT22;64379;48.888;8.330;2023-02-26T07:39:48;-1.30;70.10
75769;DHT22;64379;48.888;8.330;2023-02-26T07:42:13;-1.30;69.70
75769;DHT22;64379;48.888;8.330;2023-02-26T07:44:39;-1.20;69.90
75769;DHT22;64379;48.888;8.330;2023-02-26T07:47:04;-1.10;69.70
75769;DHT22;64379;48.888;8.330;2023-02-26T07:49:30;-1.10;69.30
75769;DHT22;64379;48.888;8.330;2023-02-26T07:51:57;-1.10;69.50
75769;DHT22;64379;48.888;8.330;2023-02-26T07:54:22;-1.10;69.40
75769;DHT22;64379;48.888;8.330;2023-02-26T07:56:48;-1.10;69.30
75769;DHT22;64379;48.888;8.330;2023-02-26T07:59:13;-1.10;69.10
75769;DHT22;64379;48.888;8.330;2023-02-26T08:01:39;-1.10;69.30
75769;DHT22;64379;48.888;8.330;2023-02-26T08:04:04;-0.90;69.00
75769;DHT22;64379;48.888;8.330;2023-02-26T08:06:30;-0.90;69.30
75769;DHT22;64379;48.888;8.330;2023-02-26T08:08:56;-0.80;68.60
75769;DHT22;64379;48.888;8.330;2023-02-26T08:11:22;-0.90;68.50
75769;DHT22;64379;48.888;8.330;2023-02-26T08:13:47;-0.80;68.60
75769;DHT22;64379;48.888;8.330;2023-02-26T08:16:13;-0.60;68.20
75769;DHT22;64379;48.888;8.330;2023-02-26T08:18:39;-0.10;66.80
75769;DHT22;64379;48.888;8.330;2023-02-26T08:21:04;0.00;66.80
75769;DHT22;64379;48.888;8.330;2023-02-26T08:23:30;0.00;66.20
75769;DHT22;64379;48.888;8.330;2023-02-26T08:26:10;0.20;66.00
75769;DHT22;64379;48.888;8.330;2023-02-26T08:28:36;0.00;65.70
75769;DHT22;64379;48.888;8.330;2023-02-26T08:31:03;0.00;65.00
75769;DHT22;64379;48.888;8.330;2023-02-26T08:33:29;0.10;66.70
75769;DHT22;64379;48.888;8.330;2023-02-26T08:35:55;0.20;65.70
75769;DHT22;64379;48.888;8.330;2023-02-26T08:38:26;0.20;65.60
75769;DHT22;64379;48.888;8.330;2023-02-26T08:40:52;0.30;65.50
75769;DHT22;64379;48.888;8.330;2023-02-26T08:43:18;0.30;64.80
75769;DHT22;64379;48.888;8.330;2023-02-26T08:45:45;0.10;65.20
75769;DHT22;64379;48.888;8.330;2023-02-26T08:48:10;0.00;65.30
75769;DHT22;64379;48.888;8.330;2023-02-26T08:50:36;0.00;65.80
75769;DHT22;64379;48.888;8.330;2023-02-26T08:53:03;-0.10;65.60
75769;DHT22;64379;48.888;8.330;2023-02-26T08:55:29;0.00;64.80
75769;DHT22;64379;48.888;8.330;2023-02-26T08:57:54;0.10;65.00
75769;DHT22;64379;48.888;8.330;2023-02-26T09:00:20;0.10;65.00
75769;DHT22;64379;48.888;8.330;2023-02-26T09:02:46;0.20;64.10
75769;DHT22;64379;48.888;8.330;2023-02-26T09:05:12;0.30;64.30
75769;DHT22;64379;48.888;8.330;2023-02-26T09:07:39;0.40;64.00
75769;DHT22;64379;48.888;8.330;2023-02-26T09:10:05;0.40;63.00
75769;DHT22;64379;48.888;8.330;2023-02-26T09:12:32;0.40;63.20
75769;DHT22;64379;48.888;8.330;2023-02-26T09:14:58;0.40;63.30
75769;DHT22;64379;48.888;8.330;2023-02-26T09:17:25;0.20;64.30
75769;DHT22;64379;48.888;8.330;2023-02-26T09:19:50;0.30;64.10
75769;DHT22;64379;48.888;8.330;2023-02-26T09:22:16;0.50;63.50
75769;DHT22;64379;48.888;8.330;2023-02-26T09:24:42;0.60;63.90
75769;DHT22;64379;48.888;8.330;2023-02-26T09:27:08;0.40;63.30
75769;DHT22;64379;48.888;8.330;2023-02-26T09:29:33;0.50;63.80
75769;DHT22;64379;48.888;8.330;2023-02-26T09:31:59;0.50;63.90
75769;DHT22;64379;48.888;8.330;2023-02-26T09:34:25;0.40;64.30
75769;DHT22;64379;48.888;8.330;2023-02-26T09:36:50;0.40;65.20
75769;DHT22;64379;48.888;8.330;2023-02-26T09:39:16;0.30;65.70
75769;DHT22;64379;48.888;8.330;2023-02-26T09:41:42;0.60;64.70
75769;DHT22;64379;48.888;8.330;2023-02-26T09:54:43;1.40;61.00
75769;DHT22;64379;48.888;8.330;2023-02-26T09:57:17;1.60;61.70
75769;DHT22;64379;48.888;8.330;2023-02-26T09:59:44;1.20;60.60
75769;DHT22;64379;48.888;8.330;2023-02-26T10:02:31;1.10;61.50
75769;DHT22;64379;48.888;8.330;2023-02-26T10:05:14;1.10;61.10
75769;DHT22;64379;48.888;8.330;2023-02-26T10:08:01;1.30;60.60
75769;DHT22;64379;48.888;8.330;2023-02-26T10:12:57;1.20;60.00
75769;DHT22;64379;48.888;8.330;2023-02-26T10:15:29;1.30;59.80
75769;DHT22;64379;48.888;8.330;2023-02-26T10:18:10;1.30;59.70
75769;DHT22;64379;48.888;8.330;2023-02-26T10:21:05;1.20;59.60
75769;DHT22;64379;48.888;8.330;2023-02-26T10:26:40;1.00;59.50
75769;DHT22;64379;48.888;8.330;2023-02-26T10:29:38;1.00;59.30
75769;DHT22;64379;48.888;8.330;2023-02-26T10:32:45;1.10;60.20
75769;DHT22;64379;48.888;8.330;2023-02-26T10:35:18;1.00;59.90
75769;DHT22;64379;48.888;8.330;2023-02-26T10:38:01;1.10;60.90
75769;DHT22;64379;48.888;8.330;2023-02-26T10:40:46;1.00;60.50
75769;DHT22;64379;48.888;8.330;2023-02-26T10:43:28;1.00;61.00
75769;DHT22;64379;48.888;8.330;2023-02-26T10:46:16;1.00;60.50
75769;DHT22;64379;48.888;8.330;2023-02-26T10:51:36;1.10;60.80
75769;DHT22;64379;48.888;8.330;2023-02-26T10:54:59;1.00;60.40
75769;DHT22;64379;48.888;8.330;2023-02-26T10:56:50;1.00;61.20
75769;DHT22;64379;48.888;8.330;2023-02-26T10:59:15;1.10;61.30
75769;DHT22;64379;48.888;8.330;2023-02-26T11:01:41;1.10;61.80
75769;DHT22;64379;48.888;8.330;2023-02-26T11:04:14;1.10;61.10
75769;DHT22;64379;48.888;8.330;2023-02-26T11:06:52;1.20;61.60
75769;DHT22;64379;48.888;8.330;2023-02-26T11:09:36;1.40;60.90
75769;DHT22;64379;48.888;8.330;2023-02-26T11:12:12;1.50;60.60
75769;DHT22;64379;48.888;8.330;2023-02-26T11:14:39;1.60;59.90
75769;DHT22;64379;48.888;8.330;2023-02-26T11:17:34;1.80;60.10
75769;DHT22;64379;48.888;8.330;2023-02-26T11:20:03;1.50;59.30
75769;DHT22;64379;48.888;8.330;2023-02-26T11:22:32;1.60;59.10
75769;DHT22;64379;48.888;8.330;2023-02-26T11:25:01;1.50;58.40
75769;DHT22;64379;48.888;8.330;2023-02-26T11:27:35;1.50;59.30
75769;DHT22;64379;48.888;8.330;2023-02-26T11:30:18;1.50;59.60
75769;DHT22;64379;48.888;8.330;2023-02-26T11:32:49;1.50;59.80
75769;DHT22;64379;48.888;8.330;2023-02-26T11:35:16;1.60;59.20
75769;DHT22;64379;48.888;8.330;2023-02-26T11:37:48;1.80;59.50
75769;DHT22;64379;48.888;8.330;2023-02-26T11:40:33;2.00;59.10
75769;DHT22;64379;48.888;8.330;2023-02-26T11:43:06;1.80;58.10
75769;DHT22;64379;48.888;8.330;2023-02-26T11:45:35;1.80;58.30
75769;DHT22;64379;48.888;8.330;2023-02-26T11:48:08;1.70;58.70
75769;DHT22;64379;48.888;8.330;2023-02-26T11:50:42;1.70;59.10
75769;DHT22;64379;48.888;8.330;2023-02-26T11:53:43;1.70;59.30
75769;DHT22;64379;48.888;8.330;2023-02-26T11:56:14;1.60;59.10
75769;DHT22;64379;48.888;8.330;2023-02-26T11:58:44;1.70;60.00
75769;DHT22;64379;48.888;8.330;2023-02-26T12:01:13;1.70;60.70
75769;DHT22;64379;48.888;8.330;2023-02-26T12:03:45;1.70;61.90
75769;DHT22;64379;48.888;8.330;2023-02-26T12:06:20;1.40;62.20
75769;DHT22;64379;48.888;8.330;2023-02-26T12:08:47;1.40;63.20
75769;DHT22;64379;48.888;8.330;2023-02-26T12:19:29;1.40;62.20
75769;DHT22;64379;48.888;8.330;2023-02-26T12:24:36;1.70;61.90
75769;DHT22;64379;48.888;8.330;2023-02-26T12:27:34;2.00;60.90
75769;DHT22;64379;48.888;8.330;2023-02-26T12:30:46;2.00;61.10
75769;DHT22;64379;48.888;8.330;2023-02-26T12:33:07;1.80;60.70
75769;DHT22;64379;48.888;8.330;2023-02-26T12:38:46;1.90;61.50
75769;DHT22;64379;48.888;8.330;2023-02-26T12:52:42;2.20;60.00
75769;DHT22;64379;48.888;8.330;2023-02-26T13:14:41;2.00;58.30
75769;DHT22;64379;48.888;8.330;2023-02-26T13:19:59;2.00;58.90
75769;DHT22;64379;48.888;8.330;2023-02-26T13:22:43;2.00;58.50
75769;DHT22;64379;48.888;8.330;2023-02-26T13:25:39;2.00;59.00
75769;DHT22;64379;48.888;8.330;2023-02-26T13:31:03;2.30;58.10
75769;DHT22;64379;48.888;8.330;2023-02-26T13:33:31;2.50;58.00
75769;DHT22;64379;48.888;8.330;2023-02-26T13:35:59;2.50;56.30
75769;DHT22;64379;48.888;8.330;2023-02-26T13:41:09;2.70;56.40
75769;DHT22;64379;48.888;8.330;2023-02-26T13:44:05;2.90;55.10
75769;DHT22;64379;48.888;8.330;2023-02-26T13:47:45;3.30;54.40
75769;DHT22;64379;48.888;8.330;2023-02-26T13:49:46;3.30;54.10
75769;DHT22;64379;48.888;8.330;2023-02-26T13:52:25;2.70;54.20
75769;DHT22;64379;48.888;8.330;2023-02-26T13:54:51;2.50;55.10
75769;DHT22;64379;48.888;8.330;2023-02-26T13:57:43;2.50;55.70
75769;DHT22;64379;48.888;8.330;2023-02-26T14:02:52;2.40;56.50
75769;DHT22;64379;48.888;8.330;2023-02-26T14:11:32;2.50;56.80
75769;DHT22;64379;48.888;8.330;2023-02-26T14:14:17;2.50;56.60
75769;DHT22;64379;48.888;8.330;2023-02-26T14:19:31;2.50;55.90
75769;DHT22;64379;48.888;8.330;2023-02-26T14:22:18;2.50;54.60
75769;DHT22;64379;48.888;8.330;2023-02-26T14:27:47;2.70;54.50
75769;DHT22;64379;48.888;8.330;2023-02-26T14:30:33;2.70;53.80
75769;DHT22;64379;48.888;8.330;2023-02-26T14:35:40;2.40;54.20
75769;DHT22;64379;48.888;8.330;2023-02-26T14:38:10;2.50;54.30
75769;DHT22;64379;48.888;8.330;2023-02-26T14:40:49;2.50;54.00
75769;DHT22;64379;48.888;8.330;2023-02-26T14:43:22;2.50;52.70
75769;DHT22;64379;48.888;8.330;2023-02-26T14:45:51;2.50;52.90
75769;DHT22;64379;48.888;8.330;2023-02-26T14:48:17;2.40;52.40
75769;DHT22;64379;48.888;8.330;2023-02-26T15:01:52;2.70;51.10
75769;DHT22;64379;48.888;8.330;2023-02-26T15:07:31;3.10;50.90
75769;DHT22;64379;48.888;8.330;2023-02-26T15:19:20;2.60;50.50
75769;DHT22;64379;48.888;8.330;2023-02-26T15:22:15;2.70;51.60
75769;DHT22;64379;48.888;8.330;2023-02-26T15:24:43;2.60;51.00
75769;DHT22;64379;48.888;8.330;2023-02-26T15:27:15;2.60;51.20
75769;DHT22;64379;48.888;8.330;2023-02-26T15:29:42;2.70;51.40
75769;DHT22;64379;48.888;8.330;2023-02-26T15:32:36;2.70;51.70
75769;DHT22;64379;48.888;8.330;2023-02-26T15:35:09;2.70;51.70
75769;DHT22;64379;48.888;8.330;2023-02-26T15:37:38;2.70;51.60
75769;DHT22;64379;48.888;8.330;2023-02-26T15:40:07;2.70;51.10
75769;DHT22;64379;48.888;8.330;2023-02-26T15:42:36;2.70;50.60
75769;DHT22;64379;48.888;8.330;2023-02-26T15:45:06;2.70;50.60
75769;DHT22;64379;48.888;8.330;2023-02-26T15:47:35;2.50;51.00
75769;DHT22;64379;48.888;8.330;2023-02-26T15:50:02;2.50;51.00
75769;DHT22;64379;48.888;8.330;2023-02-26T15:52:28;2.50;51.20
75769;DHT22;64379;48.888;8.330;2023-02-26T15:54:58;2.50;50.10
75769;DHT22;64379;48.888;8.330;2023-02-26T15:57:25;2.50;50.60
75769;DHT22;64379;48.888;8.330;2023-02-26T16:00:00;2.50;49.50
75769;DHT22;64379;48.888;8.330;2023-02-26T16:02:29;2.40;50.30
75769;DHT22;64379;48.888;8.330;2023-02-26T16:04:55;2.40;49.20
75769;DHT22;64379;48.888;8.330;2023-02-26T16:07:24;2.40;50.00
75769;DHT22;64379;48.888;8.330;2023-02-26T16:09:51;2.40;50.10
75769;DHT22;64379;48.888;8.330;2023-02-26T16:12:33;2.40;50.00
75769;DHT22;64379;48.888;8.330;2023-02-26T16:15:03;2.40;49.70
75769;DHT22;64379;48.888;8.330;2023-02-26T16:17:33;2.40;50.80
75769;DHT22;64379;48.888;8.330;2023-02-26T16:20:03;2.20;53.70
75769;DHT22;64379;48.888;8.330;2023-02-26T16:22:36;2.00;54.20
75769;DHT22;64379;48.888;8.330;2023-02-26T16:25:18;2.00;54.90
75769;DHT22;64379;48.888;8.330;2023-02-26T16:27:53;1.90;54.80
75769;DHT22;64379;48.888;8.330;2023-02-26T16:30:23;2.00;53.50
75769;DHT22;64379;48.888;8.330;2023-02-26T16:32:53;2.10;53.20
75769;DHT22;64379;48.888;8.330;2023-02-26T16:35:21;2.10;52.60
75769;DHT22;64379;48.888;8.330;2023-02-26T16:37:50;2.00;53.40
75769;DHT22;64379;48.888;8.330;2023-02-26T16:48:13;1.80;53.00
75769;DHT22;64379;48.888;8.330;2023-02-26T16:50:39;1.80;52.90
75769;DHT22;64379;48.888;8.330;2023-02-26T16:53:06;1.80;53.30
75769;DHT22;64379;48.888;8.330;2023-02-26T16:55:34;1.90;52.50
75769;DHT22;64379;48.888;8.330;2023-02-26T16:58:02;1.90;52.80
75769;DHT22;64379;48.888;8.330;2023-02-26T17:00:31;1.80;53.30
75769;DHT22;64379;48.888;8.330;2023-02-26T17:03:18;1.80;53.40
75769;DHT22;64379;48.888;8.330;2023-02-26T17:05:59;1.70;52.80
75769;DHT22;64379;48.888;8.330;2023-02-26T17:08:34;1.70;52.90
75769;DHT22;64379;48.888;8.330;2023-02-26T17:11:08;1.70;52.80
75769;DHT22;64379;48.888;8.330;2023-02-26T17:13:42;1.70;53.60
75769;DHT22;64379;48.888;8.330;2023-02-26T17:16:11;1.60;53.70
75769;DHT22;64379;48.888;8.330;2023-02-26T17:18:37;1.70;53.30
75769;DHT22;64379;48.888;8.330;2023-02-26T17:21:03;1.70;53.30
75769;DHT22;64379;48.888;8.330;2023-02-26T17:23:32;1.70;52.50
75769;DHT22;64379;48.888;8.330;2023-02-26T17:26:01;1.70;52.40
75769;DHT22;64379;48.888;8.330;2023-02-26T17:28:32;1.70;51.90
75769;DHT22;64379;48.888;8.330;2023-02-26T17:31:01;1.70;51.40
75769;DHT22;64379;48.888;8.330;2023-02-26T17:33:27;1.70;51.20
75769;DHT22;64379;48.888;8.330;2023-02-26T17:35:59;1.60;51.40
75769;DHT22;64379;48.888;8.330;2023-02-26T17:38:25;1.50;52.10
75769;DHT22;64379;48.888;8.330;2023-02-26T17:40:52;1.40;51.90
75769;DHT22;64379;48.888;8.330;2023-02-26T17:43:21;1.40;51.90
75769;DHT22;64379;48.888;8.330;2023-02-26T17:45:47;1.50;51.20
75769;DHT22;64379;48.888;8.330;2023-02-26T17:48:14;1.50;51.80
75769;DHT22;64379;48.888;8.330;2023-02-26T17:50:44;1.50;51.30
75769;DHT22;64379;48.888;8.330;2023-02-26T17:53:17;1.50;51.10
75769;DHT22;64379;48.888;8.330;2023-02-26T17:55:48;1.40;51.10
75769;DHT22;64379;48.888;8.330;2023-02-26T17:58:27;1.50;50.80
75769;DHT22;64379;48.888;8.330;2023-02-26T18:00:54;1.50;50.90
75769;DHT22;64379;48.888;8.330;2023-02-26T18:03:20;1.50;51.00
75769;DHT22;64379;48.888;8.330;2023-02-26T18:05:47;1.50;50.80
75769;DHT22;64379;48.888;8.330;2023-02-26T18:08:33;1.50;50.20
75769;DHT22;64379;48.888;8.330;2023-02-26T18:11:00;1.60;50.30
75769;DHT22;64379;48.888;8.330;2023-02-26T18:13:26;1.60;50.10
75769;DHT22;64379;48.888;8.330;2023-02-26T18:15:53;1.50;50.70
75769;DHT22;64379;48.888;8.330;2023-02-26T18:18:21;1.50;50.70
75769;DHT22;64379;48.888;8.330;2023-02-26T18:20:47;1.50;51.00
75769;DHT22;64379;48.888;8.330;2023-02-26T18:23:13;1.40;50.60
75769;DHT22;64379;48.888;8.330;2023-02-26T18:25:42;1.40;50.60
75769;DHT22;64379;48.888;8.330;2023-02-26T18:28:13;1.40;50.90
75769;DHT22;64379;48.888;8.330;2023-02-26T18:30:40;1.30;50.60
75769;DHT22;64379;48.888;8.330;2023-02-26T18:33:09;1.30;50.50
75769;DHT22;64379;48.888;8.330;2023-02-26T18:35:35;1.30;50.50